Time;durP1;ratioP1;P1;durP2;ratioP2;P2;SDS_P1;SDS_P2;PMS_P1;PMS_P2;Temp;Humidity;BMP_temperature;BMP_pressure;BME280_temperature;BME280_humidity;BME280_pressure;Samples;Min_cycle;Max_cycle;Signal;HPM_P1;HPM_P2
2022/05/17 00:01:52;;;;;;;46.05;7.30;;;13.60;99.90;;;;;;5013675;28;20166;-66
2022/05/17 00:04:19;;;;;;;34.23;6.40;;;13.60;99.90;;;;;;5030142;28;20267;-68
2022/05/17 00:06:45;;;;;;;30.35;6.22;;;13.60;99.90;;;;;;5030983;28;20178;-66
2022/05/17 00:09:11;;;;;;;46.30;7.30;;;13.60;99.90;;;;;;5026024;28;20177;-67
2022/05/17 00:11:36;;;;;;;47.10;6.17;;;13.60;99.90;;;;;;5022241;28;20723;-67
2022/05/17 00:14:02;;;;;;;41.17;6.80;;;13.60;99.90;;;;;;5018910;28;20176;-66
2022/05/17 00:16:28;;;;;;;44.90;6.87;;;13.60;99.90;;;;;;5010860;28;20166;-67
2022/05/17 00:18:54;;;;;;;45.83;6.78;;;13.60;99.90;;;;;;5011288;28;20178;-67
2022/05/17 00:21:20;;;;;;;43.13;6.83;;;13.60;99.90;;;;;;5010721;28;20183;-68
2022/05/17 00:23:46;;;;;;;37.20;6.17;;;13.60;99.90;;;;;;5017699;28;20181;-67
2022/05/17 00:26:12;;;;;;;41.13;5.78;;;13.60;99.90;;;;;;5010807;28;20214;-65
2022/05/17 00:28:38;;;;;;;43.20;7.10;;;13.60;99.90;;;;;;5011021;28;20167;-68
2022/05/17 00:31:06;;;;;;;38.35;6.95;;;13.70;99.90;;;;;;5010865;28;20208;-65
2022/05/17 00:33:33;;;;;;;40.28;6.28;;;13.70;99.90;;;;;;5017584;28;20178;-61
2022/05/17 00:35:58;;;;;;;36.30;6.27;;;13.70;99.90;;;;;;5030419;28;20178;-59
2022/05/17 00:38:24;;;;;;;35.63;6.75;;;13.70;99.90;;;;;;5030589;28;20265;-67
2022/05/17 00:40:50;;;;;;;40.50;6.87;;;13.70;99.90;;;;;;5030655;28;20201;-67
2022/05/17 00:46:43;;;;;;;36.57;6.30;;;13.80;99.90;;;;;;4999510;28;20220;-66
2022/05/17 00:49:12;;;;;;;40.10;7.40;;;13.80;99.90;;;;;;5030635;28;20248;-66
2022/05/17 00:51:40;;;;;;;40.60;7.47;;;13.80;99.90;;;;;;5030508;28;20675;-66
2022/05/17 00:54:09;;;;;;;40.13;7.53;;;13.80;99.90;;;;;;5020536;28;20218;-66
2022/05/17 00:56:42;;;;;;;40.00;7.37;;;13.90;99.90;;;;;;5024985;28;20368;-66
2022/05/17 00:59:09;;;;;;;40.30;6.90;;;13.80;99.90;;;;;;5028622;28;20173;-67
2022/05/17 01:01:36;;;;;;;49.45;7.00;;;13.90;99.90;;;;;;5028929;28;20244;-67
2022/05/17 01:04:13;;;;;;;34.25;6.82;;;13.90;99.90;;;;;;5025722;28;20236;-66
2022/05/17 01:06:48;;;;;;;34.40;6.93;;;13.90;99.90;;;;;;5010818;28;20182;-65
2022/05/17 01:09:14;;;;;;;32.70;6.93;;;13.90;99.90;;;;;;5014230;28;20680;-66
2022/05/17 01:11:41;;;;;;;37.28;6.65;;;13.80;99.90;;;;;;5030296;28;20185;-66
2022/05/17 01:16:53;;;;;;;39.10;7.30;;;13.80;99.90;;;;;;5014431;28;20560;-65
2022/05/17 01:19:19;;;;;;;38.65;6.95;;;13.80;99.90;;;;;;5029895;28;20193;-65
2022/05/17 01:21:45;;;;;;;41.77;7.13;;;13.70;99.90;;;;;;5017845;28;20699;-64
2022/05/17 01:24:11;;;;;;;39.08;7.53;;;13.60;99.90;;;;;;5017458;28;20847;-65
2022/05/17 01:26:42;;;;;;;41.40;7.15;;;13.60;99.90;;;;;;5030178;28;20206;-65
2022/05/17 01:29:09;;;;;;;38.95;7.00;;;13.50;99.90;;;;;;5030386;28;20699;-65
2022/05/17 01:31:38;;;;;;;33.97;7.28;;;13.50;99.90;;;;;;5018901;28;20289;-65
2022/05/17 01:34:10;;;;;;;48.90;7.65;;;13.50;99.90;;;;;;5012008;28;20194;-64
2022/05/17 01:36:37;;;;;;;45.97;8.00;;;13.40;99.90;;;;;;5013817;28;20650;-64
2022/05/17 01:39:03;;;;;;;40.13;6.57;;;13.40;99.90;;;;;;5028916;28;20554;-68
2022/05/17 01:41:29;;;;;;;42.00;7.20;;;13.30;99.90;;;;;;5033192;28;20188;-67
2022/05/17 01:43:55;;;;;;;44.50;7.67;;;13.10;99.90;;;;;;5033033;28;20264;-68
2022/05/17 01:46:21;;;;;;;40.50;7.00;;;13.20;99.90;;;;;;5025072;28;20316;-68
2022/05/17 01:48:47;;;;;;;42.00;7.97;;;13.20;99.90;;;;;;5033574;28;20181;-69
2022/05/17 01:51:13;;;;;;;42.45;7.65;;;13.10;99.90;;;;;;5033101;28;20182;-69
2022/05/17 01:53:39;;;;;;;40.08;7.72;;;13.10;99.90;;;;;;5033456;28;20681;-69
2022/05/17 01:56:07;;;;;;;45.47;8.07;;;13.10;99.90;;;;;;5031419;28;20182;-68
2022/05/17 01:58:34;;;;;;;41.60;7.33;;;13.10;99.90;;;;;;5032127;28;20268;-69
2022/05/17 02:01:00;;;;;;;35.00;7.28;;;13.10;99.90;;;;;;5027805;28;20171;-68
2022/05/17 02:03:26;;;;;;;41.70;7.40;;;13.10;99.90;;;;;;5013252;28;20189;-68
2022/05/17 02:05:52;;;;;;;37.53;7.43;;;13.20;99.90;;;;;;5014429;28;20218;-69
2022/05/17 02:08:18;;;;;;;50.87;8.37;;;13.20;99.90;;;;;;5032277;28;20640;-68
2022/05/17 02:10:44;;;;;;;46.77;8.00;;;13.20;99.90;;;;;;5029563;28;20236;-71
2022/05/17 02:13:10;;;;;;;47.73;7.90;;;13.10;99.90;;;;;;5027496;28;20175;-68
2022/05/17 02:15:36;;;;;;;35.60;7.40;;;13.10;99.90;;;;;;5017832;28;20174;-68
2022/05/17 02:18:02;;;;;;;41.27;7.33;;;13.10;99.90;;;;;;5019517;28;20185;-68
2022/05/17 02:20:28;;;;;;;44.63;7.83;;;13.10;99.90;;;;;;5031865;28;20643;-68
2022/05/17 02:22:53;;;;;;;41.93;7.40;;;13.10;99.90;;;;;;5012916;28;20171;-69
2022/05/17 02:25:19;;;;;;;38.03;7.70;;;13.10;99.90;;;;;;5014554;28;20297;-69
2022/05/17 02:27:45;;;;;;;43.47;8.23;;;13.10;99.90;;;;;;5031002;28;20644;-69
2022/05/17 02:30:12;;;;;;;37.03;7.70;;;13.10;99.90;;;;;;5028786;28;20171;-69
2022/05/17 02:32:38;;;;;;;41.85;6.82;;;13.10;99.90;;;;;;5030614;28;20589;-69
2022/05/17 02:35:06;;;;;;;41.53;7.40;;;13.10;99.90;;;;;;5032338;28;20178;-69
2022/05/17 02:37:32;;;;;;;59.80;9.03;;;13.00;99.90;;;;;;5032273;28;20189;-69
2022/05/17 02:39:58;;;;;;;45.13;8.30;;;13.00;99.90;;;;;;5032305;28;20178;-69
2022/05/17 02:42:23;;;;;;;40.63;8.53;;;12.90;99.90;;;;;;5016132;28;20229;-67
2022/05/17 02:44:49;;;;;;;43.03;7.93;;;12.90;99.90;;;;;;5011865;28;20206;-69
2022/05/17 02:47:15;;;;;;;40.27;8.10;;;12.90;99.90;;;;;;5023163;28;20225;-69
2022/05/17 02:49:44;;;;;;;45.23;8.47;;;12.90;99.90;;;;;;5032049;28;20201;-69
2022/05/17 02:52:10;;;;;;;47.47;8.77;;;12.80;99.90;;;;;;5017794;28;20179;-69
2022/05/17 02:54:37;;;;;;;38.97;8.48;;;12.90;99.90;;;;;;5012436;28;20163;-69
2022/05/17 02:57:04;;;;;;;39.60;7.63;;;12.80;99.90;;;;;;5012368;28;20166;-70
2022/05/17 02:59:30;;;;;;;46.50;9.33;;;12.80;99.90;;;;;;5027607;28;20206;-67
2022/05/17 03:01:55;;;;;;;36.53;8.05;;;12.80;99.90;;;;;;5024940;28;20212;-67
2022/05/17 03:04:21;;;;;;;33.50;7.45;;;12.70;99.90;;;;;;5030477;28;20245;-67
2022/05/17 03:06:47;;;;;;;44.60;7.47;;;12.70;99.90;;;;;;5024784;28;20653;-65
2022/05/17 03:09:13;;;;;;;36.10;7.17;;;12.70;99.90;;;;;;5013229;28;20175;-66
2022/05/17 03:11:42;;;;;;;36.70;6.97;;;12.70;99.90;;;;;;5013824;28;20194;-66
2022/05/17 03:14:08;;;;;;;41.23;7.57;;;12.60;99.90;;;;;;5012060;28;20254;-66
2022/05/17 03:16:34;;;;;;;35.73;7.60;;;12.60;99.90;;;;;;5030162;28;20177;-66
2022/05/17 03:19:02;;;;;;;34.10;7.37;;;12.70;99.90;;;;;;5031693;28;20166;-66
2022/05/17 03:21:27;;;;;;;34.93;7.67;;;12.70;99.90;;;;;;5027515;28;20182;-66
2022/05/17 03:23:53;;;;;;;44.27;7.50;;;12.70;99.90;;;;;;5019955;28;20177;-66
2022/05/17 03:26:19;;;;;;;37.13;7.27;;;12.60;99.90;;;;;;5017083;28;20217;-67
2022/05/17 03:28:45;;;;;;;37.50;7.30;;;12.70;99.90;;;;;;5031669;28;20186;-66
2022/05/17 03:31:11;;;;;;;40.03;6.83;;;12.60;99.90;;;;;;5024507;28;20182;-66
2022/05/17 03:33:37;;;;;;;42.07;7.00;;;12.70;99.90;;;;;;5030633;28;20701;-67
2022/05/17 03:36:04;;;;;;;42.97;7.10;;;12.70;99.90;;;;;;5030955;28;20169;-67
2022/05/17 03:38:30;;;;;;;41.27;7.03;;;12.70;99.90;;;;;;5031136;28;20177;-66
2022/05/17 03:40:58;;;;;;;40.70;7.47;;;12.60;99.90;;;;;;5028240;28;20181;-66
2022/05/17 03:43:25;;;;;;;46.17;7.60;;;12.60;99.90;;;;;;5011157;28;20641;-66
2022/05/17 03:45:50;;;;;;;48.90;8.43;;;12.60;99.90;;;;;;5027344;28;20696;-66
2022/05/17 03:48:17;;;;;;;39.93;7.70;;;12.60;99.90;;;;;;5031224;28;20204;-66
2022/05/17 03:50:42;;;;;;;43.20;8.03;;;12.80;99.90;;;;;;5030070;28;20188;-66
2022/05/17 03:53:08;;;;;;;34.87;7.63;;;12.70;99.90;;;;;;5011468;28;20585;-66
2022/05/17 03:55:35;;;;;;;46.83;8.60;;;12.70;99.90;;;;;;5016711;28;20165;-67
2022/05/17 03:58:00;;;;;;;48.27;8.87;;;12.80;99.90;;;;;;5030115;28;20173;-67
2022/05/17 04:00:26;;;;;;;38.80;8.23;;;12.90;99.90;;;;;;5030723;28;20177;-66
2022/05/17 04:02:52;;;;;;;41.33;8.97;;;12.80;99.90;;;;;;5011648;28;20170;-67
2022/05/17 04:05:18;;;;;;;34.97;9.07;;;12.90;99.90;;;;;;5011066;28;20589;-67
2022/05/17 04:07:44;;;;;;;34.10;9.47;;;12.90;99.90;;;;;;5011262;28;20174;-66
2022/05/17 04:10:12;;;;;;;34.27;9.80;;;12.90;99.90;;;;;;5012393;28;20513;-66
2022/05/17 04:12:38;;;;;;;38.13;9.37;;;12.90;99.90;;;;;;5027084;28;20321;-67
2022/05/17 04:15:06;;;;;;;43.07;10.87;;;12.90;99.90;;;;;;5030583;28;20173;-67
2022/05/17 04:17:32;;;;;;;32.87;9.70;;;13.00;99.90;;;;;;5030711;28;20165;-67
2022/05/17 04:19:59;;;;;;;42.80;11.83;;;13.00;99.90;;;;;;5029194;28;20185;-67
2022/05/17 04:22:25;;;;;;;40.43;11.13;;;13.00;99.90;;;;;;5024633;28;20182;-67
2022/05/17 04:24:57;;;;;;;32.67;10.40;;;13.00;99.90;;;;;;5025558;28;20289;-66
2022/05/17 04:27:23;;;;;;;37.27;11.43;;;13.00;99.90;;;;;;5023775;28;20178;-66
2022/05/17 04:29:50;;;;;;;44.50;11.27;;;12.90;99.90;;;;;;5029264;28;20652;-67
2022/05/17 04:32:16;;;;;;;37.63;10.37;;;13.00;99.90;;;;;;5030724;28;20189;-67
2022/05/17 04:34:42;;;;;;;38.33;11.77;;;13.00;99.90;;;;;;5024557;28;20182;-67
2022/05/17 04:37:08;;;;;;;44.90;11.67;;;13.00;99.90;;;;;;5029611;28;20186;-68
2022/05/17 04:39:34;;;;;;;31.30;10.52;;;13.00;99.90;;;;;;5030366;28;20284;-67
2022/05/17 04:42:00;;;;;;;36.50;11.18;;;13.00;99.90;;;;;;5030171;28;20200;-67
2022/05/17 04:44:27;;;;;;;32.85;10.85;;;13.00;99.90;;;;;;5030130;28;20288;-67
2022/05/17 04:46:53;;;;;;;42.05;11.73;;;13.00;99.90;;;;;;5029473;28;20689;-67
2022/05/17 04:49:19;;;;;;;37.53;11.70;;;13.00;99.90;;;;;;5030446;28;20176;-68
2022/05/17 04:51:45;;;;;;;34.88;10.88;;;13.00;99.90;;;;;;5030564;28;20223;-67
2022/05/17 04:54:11;;;;;;;29.80;10.67;;;12.90;99.90;;;;;;5030375;28;20182;-67
2022/05/17 04:56:36;;;;;;;37.50;11.43;;;13.10;99.90;;;;;;5018054;28;20187;-58
2022/05/17 04:59:03;;;;;;;41.03;11.40;;;13.10;99.90;;;;;;5010558;28;20174;-57
2022/05/17 05:01:31;;;;;;;38.38;11.98;;;13.00;99.90;;;;;;5010791;28;20664;-66
2022/05/17 05:03:57;;;;;;;39.40;11.00;;;13.00;99.90;;;;;;5010850;28;20175;-67
2022/05/17 05:06:24;;;;;;;31.02;11.45;;;13.00;99.90;;;;;;5011285;28;20209;-67
2022/05/17 05:08:49;;;;;;;27.73;11.43;;;13.00;99.90;;;;;;5012980;28;20210;-67
2022/05/17 05:11:15;;;;;;;37.15;11.98;;;13.10;99.90;;;;;;5014108;28;20190;-66
2022/05/17 05:13:41;;;;;;;35.47;12.27;;;13.10;99.90;;;;;;5013746;28;20202;-67
2022/05/17 05:16:12;;;;;;;35.17;11.35;;;13.10;99.90;;;;;;5025337;28;20269;-67
2022/05/17 05:18:37;;;;;;;31.30;10.67;;;13.20;99.90;;;;;;5033990;28;20644;-68
2022/05/17 05:21:10;;;;;;;26.67;10.73;;;13.20;99.90;;;;;;5033717;28;20174;-67
2022/05/17 05:23:36;;;;;;;40.28;11.00;;;13.30;99.90;;;;;;5033569;28;20253;-67
2022/05/17 05:26:03;;;;;;;36.53;11.55;;;13.30;99.90;;;;;;5031862;28;20535;-67
2022/05/17 05:28:29;;;;;;;29.40;10.85;;;13.30;99.90;;;;;;5033618;28;20171;-67
2022/05/17 05:30:55;;;;;;;33.47;10.23;;;13.30;99.90;;;;;;5026122;28;20252;-67
2022/05/17 05:33:22;;;;;;;23.63;9.43;;;13.40;99.90;;;;;;5014000;28;20174;-67
2022/05/17 05:35:48;;;;;;;29.50;9.75;;;13.40;99.90;;;;;;5013981;28;20186;-67
2022/05/17 05:38:14;;;;;;;26.83;9.90;;;13.50;99.90;;;;;;5013883;28;20232;-68
2022/05/17 05:40:41;;;;;;;29.70;9.90;;;13.50;99.90;;;;;;5013438;28;20214;-68
2022/05/17 05:43:07;;;;;;;26.85;9.43;;;13.50;99.90;;;;;;5013810;28;20197;-78
2022/05/17 05:45:33;;;;;;;28.70;10.40;;;13.50;99.90;;;;;;5018731;28;20216;-59
2022/05/17 05:47:59;;;;;;;28.63;10.43;;;13.50;99.90;;;;;;5033156;28;20310;-66
2022/05/17 05:50:26;;;;;;;27.23;9.65;;;13.50;99.90;;;;;;5033004;28;20189;-66
2022/05/17 05:52:57;;;;;;;26.05;9.82;;;13.50;99.90;;;;;;5033061;28;20707;-66
2022/05/17 05:55:23;;;;;;;30.70;10.10;;;13.60;99.90;;;;;;5031499;28;20268;-66
2022/05/17 05:57:49;;;;;;;25.80;9.80;;;13.60;99.90;;;;;;5014568;28;20207;-71
2022/05/17 06:00:16;;;;;;;27.23;9.45;;;13.60;99.90;;;;;;5011250;28;20679;-69
2022/05/17 06:02:42;;;;;;;23.25;9.70;;;13.60;99.90;;;;;;5013212;28;20178;-69
2022/05/17 06:05:08;;;;;;;25.83;9.48;;;13.70;99.90;;;;;;5014183;28;20205;-69
2022/05/17 06:07:35;;;;;;;24.83;9.65;;;13.70;99.90;;;;;;5016266;28;20178;-69
2022/05/17 06:10:02;;;;;;;20.90;9.05;;;13.70;99.90;;;;;;5030934;28;20671;-69
2022/05/17 06:12:28;;;;;;;25.50;8.68;;;13.80;99.90;;;;;;5033103;28;20189;-69
2022/05/17 06:14:54;;;;;;;34.45;9.82;;;13.80;99.90;;;;;;5032440;28;20502;-70
2022/05/17 06:17:24;;;;;;;19.48;8.55;;;13.80;99.90;;;;;;5012861;28;20565;-70
2022/05/17 06:19:50;;;;;;;28.42;8.68;;;13.90;99.90;;;;;;5012092;28;20183;-64
2022/05/17 06:22:16;;;;;;;24.33;9.00;;;13.90;99.90;;;;;;5021986;28;20693;-63
2022/05/17 06:24:41;;;;;;;23.67;9.07;;;13.90;99.90;;;;;;5032539;28;20696;-63
2022/05/17 06:27:07;;;;;;;30.33;9.82;;;14.00;99.90;;;;;;5015429;28;20634;-64
2022/05/17 06:29:33;;;;;;;22.63;8.98;;;13.90;99.90;;;;;;5012732;28;20178;-65
2022/05/17 06:31:58;;;;;;;32.05;10.80;;;14.00;99.90;;;;;;5013812;28;20564;-64
2022/05/17 06:34:24;;;;;;;26.77;9.52;;;14.00;99.90;;;;;;5012486;28;20190;-64
2022/05/17 06:36:50;;;;;;;21.63;9.65;;;14.00;99.90;;;;;;5006626;28;20170;-64
2022/05/17 06:39:15;;;;;;;35.35;10.32;;;14.00;99.90;;;;;;5012839;28;20170;-64
2022/05/17 06:41:41;;;;;;;28.33;10.02;;;14.10;99.90;;;;;;5012642;28;20254;-64
2022/05/17 06:44:07;;;;;;;29.13;9.70;;;14.10;99.90;;;;;;5017835;28;20169;-64
2022/05/17 06:46:33;;;;;;;31.50;10.73;;;14.20;99.90;;;;;;5028024;28;20663;-64
2022/05/17 06:48:58;;;;;;;29.88;10.55;;;14.30;99.90;;;;;;5032244;28;20185;-64
2022/05/17 06:51:24;;;;;;;24.73;10.43;;;14.40;99.90;;;;;;5032274;28;20665;-64
2022/05/17 06:53:50;;;;;;;23.38;9.52;;;14.60;99.90;;;;;;5031807;28;20637;-64
2022/05/17 06:56:16;;;;;;;25.05;9.20;;;14.70;99.90;;;;;;5031070;28;20174;-58
2022/05/17 06:58:41;;;;;;;23.60;8.85;;;14.70;99.90;;;;;;5030173;28;20178;-58
2022/05/17 07:01:08;;;;;;;27.35;9.38;;;14.90;99.90;;;;;;5028120;28;20247;-58
2022/05/17 07:03:34;;;;;;;26.30;10.55;;;14.90;99.90;;;;;;5019120;28;20529;-58
2022/05/17 07:06:00;;;;;;;22.45;8.68;;;15.00;99.90;;;;;;5026683;28;20210;-57
2022/05/17 07:08:25;;;;;;;20.67;8.98;;;15.10;99.90;;;;;;5031855;28;20181;-58
2022/05/17 07:13:35;;;;;;;20.60;8.35;;;15.30;99.90;;;;;;5021693;28;20235;-57
2022/05/17 07:16:02;;;;;;;25.60;8.38;;;15.50;99.90;;;;;;5031523;28;20177;-58
2022/05/17 07:18:30;;;;;;;21.75;7.65;;;15.60;99.90;;;;;;5031431;28;20265;-58
2022/05/17 07:20:58;;;;;;;24.08;7.00;;;15.60;99.90;;;;;;5031283;28;20173;-58
2022/05/17 07:23:25;;;;;;;18.50;6.05;;;15.70;99.90;;;;;;5031337;28;20170;-58
2022/05/17 07:25:51;;;;;;;23.55;7.45;;;15.80;99.90;;;;;;5031490;28;20329;-58
2022/05/17 07:28:19;;;;;;;22.30;6.53;;;15.90;99.90;;;;;;5029658;28;20166;-58
2022/05/17 07:30:46;;;;;;;22.23;7.25;;;15.90;99.90;;;;;;5026680;28;20716;-65
2022/05/17 07:33:12;;;;;;;22.42;7.43;;;15.90;99.90;;;;;;5011383;28;20630;-66
2022/05/17 07:35:38;;;;;;;19.98;6.65;;;16.00;99.90;;;;;;5012500;28;20228;-65
2022/05/17 07:38:04;;;;;;;25.42;5.78;;;16.10;99.90;;;;;;5044775;28;20177;-65
2022/05/17 07:40:30;;;;;;;23.55;5.22;;;16.20;99.90;;;;;;5024808;28;20190;-64
2022/05/17 07:42:56;;;;;;;18.98;5.43;;;16.30;99.90;;;;;;5025791;28;20212;-64
2022/05/17 07:45:22;;;;;;;23.50;4.82;;;16.30;99.90;;;;;;5033974;28;20237;-65
2022/05/17 07:47:47;;;;;;;15.98;3.58;;;16.50;99.90;;;;;;5038598;28;20236;-65
2022/05/17 07:50:13;;;;;;;11.65;2.20;;;16.70;99.90;;;;;;5038838;28;20216;-64
2022/05/17 07:52:40;;;;;;;15.00;2.22;;;16.90;99.90;;;;;;5030055;28;20166;-65
2022/05/17 07:55:06;;;;;;;14.00;2.50;;;17.10;99.90;;;;;;5030474;28;20182;-65
2022/05/17 07:57:32;;;;;;;17.90;2.90;;;17.40;99.90;;;;;;5030718;28;20182;-64
2022/05/17 07:59:57;;;;;;;14.35;2.85;;;17.60;99.90;;;;;;5030408;28;20656;-65
2022/05/17 08:02:23;;;;;;;20.40;2.58;;;17.70;99.90;;;;;;5030826;28;20178;-64
2022/05/17 08:04:49;;;;;;;15.63;2.50;;;17.80;99.90;;;;;;5030662;28;20559;-65
2022/05/17 08:07:15;;;;;;;11.77;2.47;;;18.00;99.90;;;;;;5030073;28;20702;-65
2022/05/17 08:09:40;;;;;;;18.70;2.45;;;18.10;99.90;;;;;;5029406;28;20258;-65
2022/05/17 08:12:09;;;;;;;12.18;2.22;;;18.10;99.90;;;;;;5022198;28;20184;-65
2022/05/17 08:14:35;;;;;;;11.95;1.95;;;18.20;99.90;;;;;;5027888;28;20277;-65
2022/05/17 08:17:01;;;;;;;15.65;2.30;;;18.20;99.90;;;;;;5030515;28;20240;-65
2022/05/17 08:19:27;;;;;;;14.13;2.30;;;18.40;99.90;;;;;;5019550;28;20185;-58
2022/05/17 08:21:53;;;;;;;9.13;2.50;;;18.60;99.90;;;;;;5010744;28;20183;-56
2022/05/17 08:24:18;;;;;;;10.43;2.47;;;18.70;99.90;;;;;;5011157;28;20586;-57
2022/05/17 08:29:28;;;;;;;16.45;2.50;;;19.00;99.90;;;;;;5032741;28;20177;-59
2022/05/17 08:34:37;;;;;;;11.75;1.85;;;20.00;99.90;;;;;;5040171;28;20337;-64
2022/05/17 08:37:03;;;;;;;18.17;2.22;;;20.40;99.90;;;;;;5024330;28;20665;-60
2022/05/17 08:39:29;;;;;;;10.70;2.42;;;20.60;99.90;;;;;;5010871;28;20258;-68
2022/05/17 08:42:22;;;;;;;11.07;2.30;;;21.20;99.90;;;;;;5010929;28;20185;-64
2022/05/17 08:45:00;;;;;;;13.77;2.20;;;21.30;99.90;;;;;;5041319;28;20623;-65
2022/05/17 08:47:39;;;;;;;13.95;2.17;;;21.50;99.90;;;;;;5020617;28;20817;-64
2022/05/17 08:50:11;;;;;;;10.88;2.40;;;21.30;99.90;;;;;;5022289;28;20190;-64
2022/05/17 08:52:39;;;;;;;8.13;1.83;;;21.30;99.90;;;;;;5014742;28;20185;-66
2022/05/17 08:55:28;;;;;;;19.50;3.05;;;21.10;99.90;;;;;;5021549;28;20166;-65
2022/05/17 08:57:57;;;;;;;9.00;1.70;;;20.60;99.90;;;;;;5032744;28;20609;-65
2022/05/17 09:00:42;;;;;;;10.57;1.77;;;20.90;99.90;;;;;;5023323;28;20182;-64
2022/05/17 09:03:31;;;;;;;11.13;2.47;;;20.20;99.90;;;;;;5031849;28;20239;-64
2022/05/17 09:06:10;;;;;;;11.25;2.33;;;20.20;99.90;;;;;;5021893;28;20684;-64
2022/05/17 09:09:06;;;;;;;13.60;2.58;;;20.50;99.90;;;;;;5020158;28;20200;-65
2022/05/17 09:11:47;;;;;;;13.20;2.08;;;20.90;99.90;;;;;;5019602;28;20196;-63
2022/05/17 09:14:17;;;;;;;9.93;1.98;;;21.00;99.90;;;;;;5024083;28;20183;-64
2022/05/17 09:16:57;;;;;;;15.23;2.60;;;21.10;99.90;;;;;;5025077;28;20253;-64
2022/05/17 09:19:23;;;;;;;9.57;1.83;;;21.10;99.90;;;;;;5015069;28;20167;-64
2022/05/17 09:21:49;;;;;;;10.18;1.85;;;20.90;99.90;;;;;;5021838;28;20167;-64
2022/05/17 09:24:18;;;;;;;11.77;2.22;;;20.90;99.90;;;;;;5029652;28;20248;-63
2022/05/17 09:27:10;;;;;;;13.43;2.10;;;21.00;99.90;;;;;;5033733;28;20268;-63
2022/05/17 09:29:43;;;;;;;12.43;2.30;;;20.90;99.90;;;;;;5033819;28;20709;-64
2022/05/17 09:32:13;;;;;;;12.57;2.70;;;21.30;99.90;;;;;;5033813;28;20173;-63
2022/05/17 09:34:42;;;;;;;10.13;2.08;;;21.30;99.90;;;;;;5031795;28;20262;-63
2022/05/17 09:37:13;;;;;;;11.20;2.35;;;21.50;99.90;;;;;;5033559;28;20220;-63
2022/05/17 09:39:43;;;;;;;18.48;2.58;;;21.90;99.90;;;;;;5033364;28;20171;-63
2022/05/17 09:42:20;;;;;;;13.02;2.70;;;22.10;99.90;;;;;;5016144;28;20171;-63
2022/05/17 09:44:49;;;;;;;14.95;2.50;;;22.40;99.90;;;;;;5013436;28;20198;-63
2022/05/17 09:47:24;;;;;;;19.13;2.95;;;21.90;99.90;;;;;;5018554;28;20222;-64
2022/05/17 09:52:38;;;;;;;9.95;1.92;;;22.70;99.90;;;;;;5020618;28;20225;-63
2022/05/17 09:55:15;;;;;;;11.27;2.55;;;22.30;99.90;;;;;;5033356;28;20253;-62
2022/05/17 09:57:59;;;;;;;17.88;2.85;;;22.50;99.90;;;;;;5033139;28;20178;-63
2022/05/17 10:00:32;;;;;;;15.68;2.30;;;22.30;99.90;;;;;;5033126;28;20224;-63
2022/05/17 10:03:03;;;;;;;11.93;2.03;;;22.00;99.90;;;;;;5030718;28;20170;-63
2022/05/17 10:05:38;;;;;;;10.00;2.20;;;21.50;99.90;;;;;;5031262;28;20651;-63
2022/05/17 10:08:14;;;;;;;11.60;2.53;;;21.40;99.90;;;;;;5030899;28;20266;-63
2022/05/17 10:10:46;;;;;;;16.00;2.50;;;21.60;99.90;;;;;;5029238;28;20204;-62
2022/05/17 10:13:29;;;;;;;12.55;2.67;;;21.40;99.90;;;;;;5031004;28;20172;-61
2022/05/17 10:16:04;;;;;;;10.02;2.40;;;21.60;99.90;;;;;;5031091;28;20194;-61
2022/05/17 10:18:32;;;;;;;17.75;2.60;;;21.40;99.90;;;;;;5031535;28;20165;-61
2022/05/17 10:21:09;;;;;;;18.65;2.60;;;21.50;99.90;;;;;;5013694;28;20190;-60
2022/05/17 10:24:07;;;;;;;17.98;2.55;;;21.60;99.90;;;;;;5015355;28;20186;-61
2022/05/17 10:26:39;;;;;;;12.23;2.50;;;21.90;99.90;;;;;;4993868;28;20221;-61
2022/05/17 10:29:46;;;;;;;15.35;2.47;;;22.20;99.90;;;;;;5032722;28;20188;-61
2022/05/17 10:32:24;;;;;;;8.35;2.05;;;21.90;99.90;;;;;;5012097;28;20217;-61
2022/05/17 10:35:06;;;;;;;11.88;2.00;;;21.80;99.90;;;;;;5012691;28;20198;-61
2022/05/17 10:37:41;;;;;;;6.45;1.70;;;22.20;99.90;;;;;;5012968;28;20170;-61
2022/05/17 10:40:12;;;;;;;10.82;2.08;;;22.10;99.90;;;;;;5012675;28;20640;-61
2022/05/17 10:42:39;;;;;;;11.50;2.25;;;21.50;99.90;;;;;;5012499;28;20714;-60
2022/05/17 10:45:06;;;;;;;10.50;2.17;;;21.50;99.90;;;;;;5012515;28;20224;-61
2022/05/17 10:47:40;;;;;;;11.05;1.98;;;21.70;99.90;;;;;;5012277;28;20322;-62
2022/05/17 10:50:24;;;;;;;11.95;2.70;;;22.00;99.90;;;;;;5012477;28;20182;-60
2022/05/17 10:53:04;;;;;;;13.18;2.28;;;22.20;99.90;;;;;;5012319;28;20607;-60
2022/05/17 10:56:05;;;;;;;11.25;2.10;;;22.50;99.90;;;;;;5012389;28;20590;-61
2022/05/17 10:58:49;;;;;;;9.55;2.17;;;22.80;99.90;;;;;;5012525;28;20181;-61
2022/05/17 11:01:41;;;;;;;10.48;2.28;;;22.80;99.90;;;;;;5012276;28;20178;-61
2022/05/17 11:04:21;;;;;;;15.18;2.50;;;23.30;99.90;;;;;;5012273;28;20165;-61
2022/05/17 11:07:13;;;;;;;12.32;2.47;;;22.60;99.90;;;;;;5011708;28;20231;-61
2022/05/17 11:09:43;;;;;;;13.02;3.05;;;22.70;99.90;;;;;;5012068;28;20173;-60
2022/05/17 11:12:17;;;;;;;15.73;3.17;;;23.50;99.90;;;;;;5010876;28;20178;-61
2022/05/17 11:14:57;;;;;;;11.85;2.45;;;23.40;99.90;;;;;;5012223;28;20194;-61
2022/05/17 11:17:35;;;;;;;12.52;3.03;;;24.60;99.90;;;;;;5012026;28;20186;-61
2022/05/17 11:20:31;;;;;;;14.57;2.63;;;25.00;99.90;;;;;;5011860;28;20281;-61
2022/05/17 11:23:15;;;;;;;16.23;2.50;;;25.30;99.90;;;;;;5012069;28;20178;-61
2022/05/17 11:26:15;;;;;;;8.88;2.40;;;25.50;99.90;;;;;;5011684;28;20210;-60
2022/05/17 11:28:46;;;;;;;10.27;1.95;;;24.90;99.90;;;;;;5011818;28;20182;-61
2022/05/17 11:31:29;;;;;;;14.02;2.70;;;25.20;99.90;;;;;;5011937;28;20229;-61
2022/05/17 11:34:26;;;;;;;11.65;2.97;;;25.40;99.90;;;;;;5011513;28;20257;-61
2022/05/17 11:36:55;;;;;;;10.52;2.13;;;26.60;99.90;;;;;;5011742;28;20232;-61
2022/05/17 11:39:35;;;;;;;7.53;2.35;;;25.90;99.90;;;;;;5011659;28;20173;-61
2022/05/17 11:42:11;;;;;;;12.45;2.60;;;24.80;99.90;;;;;;5011478;28;20262;-61
2022/05/17 11:44:45;;;;;;;13.88;2.85;;;24.80;99.90;;;;;;5011366;28;20228;-61
2022/05/17 11:47:34;;;;;;;14.38;2.65;;;24.20;99.90;;;;;;5011175;28;20657;-61
2022/05/17 11:50:29;;;;;;;13.57;2.63;;;24.70;99.90;;;;;;5011721;28;20271;-61
2022/05/17 11:53:16;;;;;;;10.85;2.63;;;25.80;99.90;;;;;;5005860;28;20182;-61
2022/05/17 11:56:16;;;;;;;12.73;2.70;;;25.80;99.90;;;;;;5000841;28;20186;-62
2022/05/17 11:58:45;;;;;;;16.80;2.67;;;27.50;99.90;;;;;;5011469;28;20174;-62
2022/05/17 12:01:29;;;;;;;8.50;1.77;;;26.70;99.90;;;;;;5011190;28;20202;-62
2022/05/17 12:04:07;;;;;;;10.57;2.33;;;25.60;99.90;;;;;;5011153;28;20171;-61
2022/05/17 12:06:40;;;;;;;10.32;2.28;;;24.70;99.90;;;;;;5011222;28;20214;-61
2022/05/17 12:09:11;;;;;;;13.48;1.98;;;24.90;99.90;;;;;;5011181;28;20242;-61
2022/05/17 12:11:51;;;;;;;9.55;2.50;;;24.60;99.90;;;;;;5011190;28;20677;-61
2022/05/17 12:14:26;;;;;;;18.92;2.60;;;24.20;99.90;;;;;;5011107;28;20170;-61
2022/05/17 12:16:58;;;;;;;11.55;2.10;;;26.10;99.90;;;;;;5011196;28;20170;-61
2022/05/17 12:19:50;;;;;;;10.88;2.28;;;25.30;99.90;;;;;;5010134;28;20181;-61
2022/05/17 12:22:36;;;;;;;8.77;2.22;;;25.10;99.90;;;;;;5010979;28;20182;-62
2022/05/17 12:25:09;;;;;;;10.32;2.53;;;25.40;99.90;;;;;;5010657;28;20206;-61
2022/05/17 12:27:40;;;;;;;10.85;2.00;;;24.50;99.90;;;;;;5015485;28;20201;-61
2022/05/17 12:33:02;;;;;;;13.30;2.42;;;24.40;99.90;;;;;;5024077;28;20280;-62
2022/05/17 12:35:28;;;;;;;8.77;2.47;;;24.60;99.90;;;;;;5029377;28;20173;-61
2022/05/17 12:37:56;;;;;;;13.68;2.60;;;24.50;99.90;;;;;;5030694;28;20257;-62
2022/05/17 12:43:22;;;;;;;7.15;2.22;;;24.50;99.90;;;;;;5030624;28;20227;-62
2022/05/17 12:45:49;;;;;;;7.72;2.10;;;24.60;99.90;;;;;;5030475;28;20275;-62
2022/05/17 12:48:38;;;;;;;12.07;2.53;;;24.50;99.90;;;;;;5029376;28;20256;-62
2022/05/17 12:51:09;;;;;;;10.18;2.45;;;23.90;99.90;;;;;;5025824;28;20212;-60
2022/05/17 12:53:45;;;;;;;16.08;2.17;;;24.10;99.90;;;;;;5030134;28;20174;-61
2022/05/17 12:56:20;;;;;;;8.70;1.92;;;24.30;99.90;;;;;;5030400;28;20176;-61
2022/05/17 12:58:53;;;;;;;12.75;2.22;;;23.60;99.90;;;;;;5030557;28;20185;-61
2022/05/17 13:01:33;;;;;;;9.45;1.88;;;23.30;99.90;;;;;;5030349;28;20572;-61
2022/05/17 13:04:16;;;;;;;6.38;1.80;;;23.60;99.90;;;;;;5026870;28;20178;-61
2022/05/17 13:06:48;;;;;;;8.60;1.70;;;23.20;99.90;;;;;;5030235;28;20278;-62
2022/05/17 13:09:16;;;;;;;5.65;1.60;;;23.40;99.90;;;;;;5029677;28;20203;-62
2022/05/17 13:11:42;;;;;;;9.45;1.83;;;23.20;99.90;;;;;;5028820;28;20292;-62
2022/05/17 13:14:10;;;;;;;8.10;1.90;;;22.90;99.90;;;;;;5030445;28;20242;-63